Farmingdale, NY
on Wednesday, December 6, 2017

Wednesday
       
Previous Day Next Day
Daily Summary
 ActualAverageRecord
Temperature
Mean Temperature °F °C °F °C  
Max Temperature 57°F 14°C 44°F 6°C 68°F 20°C (2001)
Min Temperature 39°F 4°C 32°F 0°C 19°F -7°C (2002)
Degree Days
Heating Degree Days 17    
Moisture
Dew Point 32°F 0°C   
Average Humidity 60    
Maximum Humidity 100    
Minimum Humidity 35    
Precipitation
Precipitation 0.00 in / 0.00 cm in / cm in / cm ()
Wind
Wind Speed 12 mph / 19 km/h   
Max Wind Speed 23 mph / 37 km/h   
Max Gust Speed 37 mph / 60 km/h   
Visibility 7 miles / 11 kilometers   
Events Rain   
Averages and records for this station are not official NWS values.
Key: T is trace of precipitation, MM is missing value
Source: NWS Daily Summary
Seasonal Weather Averages
Time(EST)TemperatureDew PointHumidity Pressure Visibility Wind DirectionWind SpeedGust SpeedPrecipitationEvents Conditions
12:53 AM 57.0°F 13.9°C 55.9°F 13.3°C 96% 29.82 in / 1009.6 hPa 2.5 miles / 4.0 kilometers SSW 13.8 mph / 22.2 km/h - 0.00 in / 0.0 cm Rain Light Rain
1:27 AM 57.0°F 13.9°C 55.9°F 13.3°C 96% 29.82 in / 1009.7 hPa 2.5 miles / 4.0 kilometers SW 13.8 mph / 22.2 km/h - 0.00 in / 0.0 cm   Overcast
1:53 AM 57.0°F 13.9°C 55.9°F 13.3°C 96% 29.82 in / 1009.7 hPa 2.5 miles / 4.0 kilometers SW 12.7 mph / 20.4 km/h - 0.00 in / 0.0 cm   Overcast
2:32 AM 57.0°F 13.9°C 55.9°F 13.3°C 96% 29.80 in / 1009.0 hPa 2.5 miles / 4.0 kilometers SW 8.1 mph / 13.0 km/h - N/A   Overcast
2:53 AM 57.0°F 13.9°C 55.9°F 13.3°C 96% 29.81 in / 1009.2 hPa 2.5 miles / 4.0 kilometers SW 8.1 mph / 13.0 km/h - N/A   Overcast
3:43 AM 55.9°F 13.3°C 55.9°F 13.3°C 100% 29.81 in / 1009.4 hPa 2.5 miles / 4.0 kilometers SW 5.8 mph / 9.3 km/h - N/A   Overcast
3:53 AM 55.9°F 13.3°C 55.0°F 12.8°C 97% 29.82 in / 1009.6 hPa 2.5 miles / 4.0 kilometers WSW 4.6 mph / 7.4 km/h - N/A   Overcast
4:06 AM 55.9°F 13.3°C 54.0°F 12.2°C 93% 29.84 in / 1010.4 hPa 2.5 miles / 4.0 kilometers WNW 23.0 mph / 37.0 km/h 36.8 mph / 59.3 km/h N/A   Overcast
4:18 AM 52.0°F 11.1°C 46.0°F 7.8°C 80% 29.86 in / 1011.1 hPa 2.5 miles / 4.0 kilometers NW 15.0 mph / 24.1 km/h 26.5 mph / 42.6 km/h N/A   Overcast
4:30 AM 51.1°F 10.6°C 44.1°F 6.7°C 77% 29.87 in / 1011.4 hPa 2.5 miles / 4.0 kilometers NW 15.0 mph / 24.1 km/h 27.6 mph / 44.4 km/h N/A   Overcast
4:53 AM 50.0°F 10.0°C 43.0°F 6.1°C 77% 29.87 in / 1011.5 hPa 2.5 miles / 4.0 kilometers WNW 12.7 mph / 20.4 km/h 23.0 mph / 37.0 km/h N/A   Overcast
5:53 AM 50.0°F 10.0°C 36.0°F 2.2°C 59% 29.89 in / 1012.2 hPa 2.5 miles / 4.0 kilometers WNW 12.7 mph / 20.4 km/h - N/A   Overcast
6:53 AM 48.9°F 9.4°C 28.9°F -1.7°C 46% 29.91 in / 1012.8 hPa 2.5 miles / 4.0 kilometers West 13.8 mph / 22.2 km/h - N/A   Overcast
7:49 AM 48.2°F 9.0°C 24.8°F -4.0°C 40% 29.94 in / 1013.8 hPa 10.0 miles / 16.1 kilometers West 10.4 mph / 16.7 km/h 21.9 mph / 35.2 km/h N/A   Overcast
7:53 AM 48.0°F 8.9°C 24.1°F -4.4°C 39% 29.94 in / 1013.9 hPa 10.0 miles / 16.1 kilometers West 10.4 mph / 16.7 km/h 21.9 mph / 35.2 km/h N/A   Overcast
8:53 AM 46.0°F 7.8°C 24.1°F -4.4°C 42% 29.96 in / 1014.5 hPa 10.0 miles / 16.1 kilometers WNW 12.7 mph / 20.4 km/h 24.2 mph / 38.9 km/h N/A   Clear
9:53 AM 44.1°F 6.7°C 24.1°F -4.4°C 45% 29.99 in / 1015.4 hPa 10.0 miles / 16.1 kilometers WNW 13.8 mph / 22.2 km/h 20.7 mph / 33.3 km/h N/A   Clear
10:53 AM 42.1°F 5.6°C 25.0°F -3.9°C 51% 29.99 in / 1015.4 hPa 10.0 miles / 16.1 kilometers WNW 10.4 mph / 16.7 km/h - N/A   Clear
11:53 AM 43.0°F 6.1°C 19.9°F -6.7°C 40% 29.98 in / 1015.0 hPa 10.0 miles / 16.1 kilometers WNW 12.7 mph / 20.4 km/h 21.9 mph / 35.2 km/h N/A   Clear
12:53 PM 42.1°F 5.6°C 19.0°F -7.2°C 40% 29.97 in / 1014.7 hPa 10.0 miles / 16.1 kilometers West 12.7 mph / 20.4 km/h 20.7 mph / 33.3 km/h N/A   Clear
1:53 PM 43.0°F 6.1°C 17.1°F -8.3°C 35% 29.95 in / 1014.0 hPa 10.0 miles / 16.1 kilometers West 9.2 mph / 14.8 km/h 18.4 mph / 29.6 km/h N/A   Clear
2:53 PM 42.1°F 5.6°C 18.0°F -7.8°C 38% 29.96 in / 1014.6 hPa 10.0 miles / 16.1 kilometers West 11.5 mph / 18.5 km/h - N/A   Clear
3:53 PM 42.1°F 5.6°C 18.0°F -7.8°C 38% 29.97 in / 1014.7 hPa 10.0 miles / 16.1 kilometers WSW 9.2 mph / 14.8 km/h - N/A   Clear
4:53 PM 42.1°F 5.6°C 18.0°F -7.8°C 38% 29.98 in / 1015.1 hPa 10.0 miles / 16.1 kilometers WSW 9.2 mph / 14.8 km/h - N/A   Clear
5:53 PM 42.1°F 5.6°C 17.1°F -8.3°C 37% 29.99 in / 1015.4 hPa 10.0 miles / 16.1 kilometers West 12.7 mph / 20.4 km/h - N/A   Clear
6:53 PM 42.1°F 5.6°C 18.0°F -7.8°C 38% 30.00 in / 1015.7 hPa 10.0 miles / 16.1 kilometers WNW 8.1 mph / 13.0 km/h - N/A   Clear
7:53 PM 41.0°F 5.0°C 19.9°F -6.7°C 43% 30.01 in / 1016.0 hPa 10.0 miles / 16.1 kilometers West 6.9 mph / 11.1 km/h - N/A   Clear
8:53 PM 41.0°F 5.0°C 19.0°F -7.2°C 41% 30.01 in / 1016.2 hPa 10.0 miles / 16.1 kilometers WSW 10.4 mph / 16.7 km/h - N/A   Clear
9:53 PM 39.9°F 4.4°C 19.0°F -7.2°C 43% 30.01 in / 1016.2 hPa 10.0 miles / 16.1 kilometers West 10.4 mph / 16.7 km/h - N/A   Clear
10:53 PM 39.9°F 4.4°C 19.0°F -7.2°C 43% 30.02 in / 1016.4 hPa 10.0 miles / 16.1 kilometers West 10.4 mph / 16.7 km/h - N/A   Clear
11:53 PM 39.0°F 3.9°C 19.9°F -6.7°C 46% 30.00 in / 1015.9 hPa 10.0 miles / 16.1 kilometers WSW 8.1 mph / 13.0 km/h - N/A   Clear